Weather at Big Sandy Regional Airport

Public forecast

Using degrees Fahrenheit for public forecast. Weather courtesy of forecast.io.

Current aviation weather report (METAR) for Big Sandy Regional Airport

Retrieved 2020/12/01 16:35 UTC (10 minutes ago):

KSJS 011635Z AUTO 29010KT 10SM OVC014 M01/M03 A2998 RMK AO2 T10101026 PNO

Closest aviation forecast (TAF) to Big Sandy Regional Airport

Closest forecast is Julian Carroll Airport, 33.7 nm (62.4 km) WSW. Retrieved 2020/12/01 12:33 UTC (4 hours ago):

TAF KJKL 011130Z 0112/0212 27007KT 3SM -SHSN OVC010 FM011400 27008KT P6SM VCSH OVC010 FM011900 26009KT P6SM OVC020 FM012300 26006KT P6SM BKN040 AMD NOT SKED